Time;durP1;ratioP1;P1;durP2;ratioP2;P2;SDS_P1;SDS_P2;PMS_P1;PMS_P2;Temp;Humidity;BMP_temperature;BMP_pressure;BME280_temperature;BME280_humidity;BME280_pressure;Samples;Min_cycle;Max_cycle;Signal;HPM_P1;HPM_P2
2023/10/17 00:00:20;;;;;;;28.00;26.60;;;;;;;2.73;100.00;101829.72;5011733;28;20045;-78
2023/10/17 00:03:38;;;;;;;28.23;26.83;;;;;;;3.09;100.00;101837.25;5012003;28;20050;-78
2023/10/17 00:06:28;;;;;;;24.75;23.45;;;;;;;3.18;100.00;101839.09;5004481;28;20045;-77
2023/10/17 00:08:56;;;;;;;55.22;52.78;;;;;;;2.95;100.00;101831.34;5010911;28;20054;-77
2023/10/17 00:12:09;;;;;;;33.65;32.10;;;;;;;3.05;100.00;101831.41;4995016;28;20454;-78
2023/10/17 00:14:44;;;;;;;40.83;39.05;;;;;;;2.21;100.00;101830.50;5001329;28;20054;-78
2023/10/17 00:17:28;;;;;;;33.38;31.77;;;;;;;2.31;100.00;101834.06;5007999;28;20134;-78
2023/10/17 00:23:45;;;;;;;35.78;34.08;;;;;;;2.33;100.00;101829.53;5007480;28;20097;-77
2023/10/17 00:26:20;;;;;;;30.45;28.95;;;;;;;2.36;100.00;101831.06;4998859;28;20050;-77
2023/10/17 00:28:51;;;;;;;27.23;25.73;;;;;;;2.63;100.00;101825.34;5011823;28;20049;-78
2023/10/17 00:31:21;;;;;;;31.77;30.02;;;;;;;2.35;100.00;101822.34;5010929;28;20045;-79
2023/10/17 00:33:57;;;;;;;30.50;28.90;;;;;;;2.56;100.00;101822.41;5007140;28;20797;-76
2023/10/17 00:36:26;;;;;;;37.35;35.55;;;;;;;2.55;100.00;101817.28;5009048;28;20054;-77
2023/10/17 00:39:07;;;;;;;34.83;33.13;;;;;;;2.38;100.00;101827.34;5009109;28;20080;-76
2023/10/17 00:41:50;;;;;;;36.05;34.38;;;;;;;2.21;100.00;101830.50;5005491;28;20497;-76
2023/10/17 00:44:27;;;;;;;35.00;33.30;;;;;;;2.19;100.00;101838.50;5008080;28;20054;-76
2023/10/17 00:46:55;;;;;;;32.60;31.00;;;;;;;1.93;100.00;101827.47;5007608;28;20073;-76
2023/10/17 00:49:23;;;;;;;32.33;30.73;;;;;;;2.34;100.00;101825.94;5008994;28;20054;-76
2023/10/17 00:51:52;;;;;;;32.70;31.10;;;;;;;2.45;100.00;101833.78;5005388;28;20137;-77
2023/10/17 00:54:21;;;;;;;34.88;33.08;;;;;;;2.29;100.00;101825.47;5009188;28;20050;-76
2023/10/17 00:56:54;;;;;;;37.47;35.67;;;;;;;2.06;100.00;101827.34;5008031;28;20135;-76
2023/10/17 00:59:29;;;;;;;40.72;38.83;;;;;;;2.50;100.00;101822.91;5001279;28;21251;-75
2023/10/17 01:01:56;;;;;;;33.92;32.33;;;;;;;1.73;100.00;101821.22;5009168;28;20078;-76
2023/10/17 01:04:24;;;;;;;31.75;30.30;;;;;;;1.74;100.00;101829.91;5002591;28;20042;-76
2023/10/17 01:06:54;;;;;;;32.70;31.15;;;;;;;1.59;100.00;101827.53;5008618;28;20134;-76
2023/10/17 01:09:29;;;;;;;35.60;34.00;;;;;;;1.58;100.00;101822.44;5008700;28;20166;-77
2023/10/17 01:12:08;;;;;;;34.72;33.13;;;;;;;1.72;100.00;101818.72;5004898;28;20050;-76
2023/10/17 01:14:35;;;;;;;31.40;29.80;;;;;;;1.76;100.00;101825.41;5008902;28;20442;-76
2023/10/17 01:17:07;;;;;;;35.28;33.67;;;;;;;1.68;100.00;101814.69;5004880;28;20050;-77
2023/10/17 01:19:35;;;;;;;41.00;37.60;;;;;;;2.05;100.00;101825.66;5008645;28;20149;-75
2023/10/17 01:22:03;;;;;;;37.25;35.55;;;;;;;2.04;100.00;101829.25;5008483;28;20049;-76
2023/10/17 01:24:32;;;;;;;38.15;36.45;;;;;;;1.77;100.00;101825.25;5008005;28;20053;-76
2023/10/17 01:27:05;;;;;;;38.38;36.55;;;;;;;1.36;100.00;101816.25;5008174;28;20054;-76
2023/10/17 01:29:32;;;;;;;33.92;32.42;;;;;;;1.85;100.00;101822.03;5009072;28;20053;-76
2023/10/17 01:31:59;;;;;;;37.58;35.97;;;;;;;1.92;100.00;101819.75;5008661;28;20684;-76
2023/10/17 01:34:27;;;;;;;34.33;32.78;;;;;;;1.91;100.00;101813.69;5007070;28;20053;-76
2023/10/17 01:36:57;;;;;;;33.70;32.17;;;;;;;2.11;100.00;101809.44;5009003;28;20540;-76
2023/10/17 01:39:48;;;;;;;34.45;32.85;;;;;;;2.01;100.00;101812.00;5009691;28;20053;-79
2023/10/17 01:42:21;;;;;;;32.65;31.25;;;;;;;1.96;100.00;101816.75;5010614;28;20060;-78
2023/10/17 01:44:53;;;;;;;36.65;35.05;;;;;;;2.23;100.00;101812.88;5005697;28;20053;-77
2023/10/17 01:47:38;;;;;;;29.55;28.25;;;;;;;1.81;100.00;101810.94;4996629;28;20083;-77
2023/10/17 01:53:28;;;;;;;31.58;30.17;;;;;;;1.96;100.00;101827.25;5003055;28;20038;-77
2023/10/17 01:56:06;;;;;;;32.20;30.90;;;;;;;1.96;100.00;101818.56;5010358;28;20050;-78
2023/10/17 01:58:48;;;;;;;35.33;33.83;;;;;;;1.81;100.00;101826.66;5007804;28;20628;-77
2023/10/17 02:01:17;;;;;;;36.97;35.47;;;;;;;1.80;100.00;101817.16;5009004;28;20556;-78
2023/10/17 02:07:24;;;;;;;28.00;26.90;;;;;;;1.49;100.00;101817.91;5007996;28;20087;-77
2023/10/17 02:09:57;;;;;;;30.58;29.27;;;;;;;1.23;100.00;101807.66;5014148;28;20104;-77
2023/10/17 02:12:26;;;;;;;28.65;27.38;;;;;;;1.64;100.00;101805.41;5013220;28;20085;-78
2023/10/17 02:15:06;;;;;;;32.95;31.17;;;;;;;1.32;100.00;101812.19;5011755;28;20050;-77
2023/10/17 02:17:34;;;;;;;34.80;33.40;;;;;;;1.44;100.00;101813.03;5007351;28;20050;-77
2023/10/17 02:20:08;;;;;;;27.17;26.02;;;;;;;1.75;100.00;101811.44;5011686;28;20448;-77
2023/10/17 02:22:49;;;;;;;38.28;36.67;;;;;;;1.65;100.00;101804.44;5012732;28;20472;-75
2023/10/17 02:25:23;;;;;;;31.27;29.98;;;;;;;1.23;100.00;101810.28;5004619;28;20054;-76
2023/10/17 02:27:57;;;;;;;38.47;36.92;;;;;;;1.65;100.00;101800.03;5006296;28;20054;-75
2023/10/17 02:30:30;;;;;;;33.70;32.40;;;;;;;1.79;100.00;101806.81;5008427;28;20426;-76
2023/10/17 02:33:00;;;;;;;39.40;37.65;;;;;;;1.62;100.00;101808.13;5009625;28;20442;-76
2023/10/17 02:35:36;;;;;;;35.45;33.97;;;;;;;1.53;100.00;101801.00;5008562;28;20053;-77
2023/10/17 02:38:04;;;;;;;31.27;30.08;;;;;;;1.23;100.00;101807.66;5011210;28;20053;-76
2023/10/17 02:40:34;;;;;;;33.65;32.25;;;;;;;1.44;100.00;101802.56;5000656;28;20042;-77
2023/10/17 02:43:02;;;;;;;37.70;36.10;;;;;;;1.55;100.00;101807.78;5009747;28;20049;-77
2023/10/17 02:45:30;;;;;;;32.85;31.38;;;;;;;1.44;100.00;101810.41;5008525;28;20050;-76
2023/10/17 02:48:23;;;;;;;31.20;29.83;;;;;;;1.12;100.00;101812.88;5006164;28;20458;-77
2023/10/17 02:51:00;;;;;;;29.90;28.40;;;;;;;0.31;100.00;101809.38;5010285;28;20952;-75
2023/10/17 02:53:34;;;;;;;29.15;27.55;;;;;;;0.71;100.00;101805.56;5007487;28;20060;-77
2023/10/17 02:56:09;;;;;;;31.80;30.17;;;;;;;0.88;100.00;101810.38;5007862;28;20054;-77
2023/10/17 02:58:38;;;;;;;31.95;30.27;;;;;;;1.20;100.00;101807.91;5009106;28;20151;-77
2023/10/17 03:01:05;;;;;;;28.63;27.13;;;;;;;1.22;100.00;101808.63;5010738;28;20050;-76
2023/10/17 03:03:34;;;;;;;34.28;32.63;;;;;;;1.24;100.00;101818.97;5010746;28;20071;-78
2023/10/17 03:06:00;;;;;;;27.88;26.67;;;;;;;1.21;100.00;101813.97;5010030;28;20143;-78
2023/10/17 03:08:49;;;;;;;26.15;24.75;;;;;;;1.33;100.00;101813.00;5010245;28;20060;-76
2023/10/17 03:11:26;;;;;;;27.85;26.35;;;;;;;0.84;100.00;101808.91;5010243;28;20057;-74
2023/10/17 03:13:56;;;;;;;31.35;29.65;;;;;;;0.43;100.00;101805.03;5005651;28;20068;-75
2023/10/17 03:16:26;;;;;;;28.23;26.30;;;;;;;1.04;100.00;101810.88;5006127;28;20104;-77
2023/10/17 03:18:52;;;;;;;33.20;31.60;;;;;;;1.33;100.00;101815.63;5010481;28;20437;-76
2023/10/17 03:21:54;;;;;;;31.00;29.40;;;;;;;1.27;100.00;101805.63;5012541;28;20498;-77
2023/10/17 03:24:28;;;;;;;34.17;32.47;;;;;;;1.16;100.00;101810.88;5012377;28;20080;-77
2023/10/17 03:27:03;;;;;;;30.67;29.08;;;;;;;0.84;100.00;101801.06;5013160;28;20049;-78
2023/10/17 03:29:34;;;;;;;32.70;31.10;;;;;;;0.94;100.00;101798.59;5005838;28;20072;-77
2023/10/17 03:32:15;;;;;;;37.60;35.85;;;;;;;0.89;100.00;101794.56;5002276;28;20485;-77
2023/10/17 03:34:45;;;;;;;44.65;42.13;;;;;;;0.93;100.00;101791.69;5012181;28;20046;-79
2023/10/17 03:37:28;;;;;;;41.92;38.83;;;;;;;0.42;100.00;101783.28;5012160;28;20457;-78
2023/10/17 03:39:57;;;;;;;48.55;45.00;;;;;;;0.41;100.00;101788.59;5006410;28;20843;-77
2023/10/17 03:42:44;;;;;;;36.78;34.28;;;;;;;0.39;100.00;101793.97;5007782;28;20049;-76
2023/10/17 03:45:16;;;;;;;44.22;41.25;;;;;;;0.73;100.00;101799.28;5009642;28;20153;-76
2023/10/17 03:47:46;;;;;;;54.63;51.55;;;;;;;0.71;100.00;101788.09;5008842;28;20100;-77
2023/10/17 03:50:22;;;;;;;60.78;57.67;;;;;;;1.34;100.00;101794.59;5009169;28;20108;-76
2023/10/17 03:52:50;;;;;;;66.10;62.60;;;;;;;1.03;100.00;101801.34;5009043;28;20053;-74
2023/10/17 03:55:21;;;;;;;36.83;35.13;;;;;;;1.20;100.00;101797.44;5007776;28;20045;-76
2023/10/17 03:57:54;;;;;;;37.72;35.88;;;;;;;0.94;100.00;101791.59;4924446;28;20041;-76
2023/10/17 04:00:41;;;;;;;35.38;33.67;;;;;;;1.12;100.00;101803.28;5009142;28;20133;-76
2023/10/17 04:03:18;;;;;;;43.63;41.63;;;;;;;1.18;100.00;101803.72;5002112;28;20046;-76
2023/10/17 04:05:48;;;;;;;31.95;30.35;;;;;;;1.24;100.00;101804.13;5010103;28;20049;-78
2023/10/17 04:08:17;;;;;;;28.48;26.98;;;;;;;1.13;100.00;101804.94;5008275;28;20050;-76
2023/10/17 04:10:49;;;;;;;29.33;27.92;;;;;;;1.30;100.00;101795.78;5010647;28;20076;-77
2023/10/17 04:13:23;;;;;;;29.15;27.65;;;;;;;1.36;100.00;101797.94;5008817;28;20108;-77
2023/10/17 04:15:51;;;;;;;27.17;25.67;;;;;;;1.01;100.00;101797.19;5002357;28;20147;-76
2023/10/17 04:18:22;;;;;;;22.05;20.92;;;;;;;0.98;100.00;101792.19;5010420;28;20129;-76
2023/10/17 04:20:58;;;;;;;24.88;23.58;;;;;;;1.24;100.00;101793.66;5009753;28;20050;-75
2023/10/17 04:23:30;;;;;;;25.88;24.48;;;;;;;1.37;100.00;101794.34;5013214;28;20107;-77
2023/10/17 04:25:57;;;;;;;24.63;23.33;;;;;;;1.27;100.00;101793.41;5002609;28;20054;-77
2023/10/17 04:28:27;;;;;;;20.65;19.58;;;;;;;1.03;100.00;101797.88;5007337;28;20056;-77
2023/10/17 04:30:57;;;;;;;21.15;20.05;;;;;;;1.27;100.00;101803.03;5011111;28;20433;-76
2023/10/17 04:33:34;;;;;;;23.17;22.08;;;;;;;0.95;100.00;101801.09;4658652;28;10000075;-77
2023/10/17 04:36:08;;;;;;;20.08;19.08;;;;;;;1.34;100.00;101796.38;5008889;28;20522;-76
2023/10/17 04:39:25;;;;;;;20.90;19.80;;;;;;;1.45;100.00;101800.75;5001375;28;20103;-77
2023/10/17 04:42:11;;;;;;;21.42;20.42;;;;;;;1.34;100.00;101804.22;5006969;28;20108;-78
2023/10/17 04:44:50;;;;;;;22.90;21.63;;;;;;;1.67;100.00;101805.16;5004422;28;20104;-77
2023/10/17 04:47:30;;;;;;;22.38;21.27;;;;;;;1.81;100.00;101803.09;5007351;28;20577;-77
2023/10/17 04:50:11;;;;;;;24.58;23.27;;;;;;;1.58;100.00;101801.47;5008261;28;20517;-75
2023/10/17 04:52:42;;;;;;;21.67;20.48;;;;;;;1.90;100.00;101808.56;5007512;28;20166;-76
2023/10/17 04:55:19;;;;;;;22.98;21.80;;;;;;;2.12;100.00;101805.03;5005825;28;20054;-75
2023/10/17 04:57:56;;;;;;;23.08;21.88;;;;;;;2.52;100.00;101811.31;5005192;28;20057;-76
2023/10/17 05:01:10;;;;;;;21.48;20.17;;;;;;;2.64;100.00;101804.22;5007342;28;20509;-75
2023/10/17 05:03:32;;;;;;;22.85;21.25;;;;;;;2.63;100.00;101813.06;5006137;28;20061;-75
2023/10/17 05:06:18;;;;;;;23.77;22.33;;;;;;;2.79;100.00;101804.75;5006028;28;20498;-76
2023/10/17 05:09:00;;;;;;;22.38;21.27;;;;;;;2.97;100.00;101812.88;4997596;28;20437;-75
2023/10/17 06:18:32;;;;;;;28.30;26.50;;;;;;;6.67;100.00;101826.28;4982309;28;22095;-76
2023/10/17 06:21:17;;;;;;;25.83;24.13;;;;;;;6.56;100.00;101827.34;4955172;28;20130;-77
2023/10/17 06:27:12;;;;;;;28.33;26.63;;;;;;;6.99;100.00;101829.16;4996116;28;20108;-78
2023/10/17 06:33:03;;;;;;;28.88;27.17;;;;;;;7.47;100.00;101827.75;5032092;28;20054;-76
2023/10/17 06:36:25;;;;;;;29.45;27.75;;;;;;;7.50;100.00;101831.91;5021091;28;20056;-77
2023/10/17 06:39:12;;;;;;;27.52;25.83;;;;;;;7.76;100.00;101840.59;5030977;28;20494;-77
2023/10/17 06:41:41;;;;;;;27.55;26.05;;;;;;;7.90;100.00;101833.88;5032422;28;20449;-77
2023/10/17 06:44:30;;;;;;;25.30;24.00;;;;;;;7.66;100.00;101833.81;5031768;28;20049;-76
2023/10/17 06:47:07;;;;;;;25.70;24.40;;;;;;;7.90;100.00;101830.41;5032320;28;20049;-77
2023/10/17 06:53:02;;;;;;;27.98;26.38;;;;;;;7.73;100.00;101821.59;5018297;28;20115;-77
2023/10/17 06:55:38;;;;;;;32.28;30.48;;;;;;;8.88;100.00;101811.97;5026706;28;20085;-78
2023/10/17 06:58:10;;;;;;;29.42;27.63;;;;;;;8.98;100.00;101814.44;5030017;28;20131;-77
2023/10/17 07:00:49;;;;;;;30.30;28.70;;;;;;;9.78;100.00;101820.47;5026616;28;20514;-75
2023/10/17 07:03:24;;;;;;;25.92;24.63;;;;;;;9.88;100.00;101814.94;5024053;28;20064;-76
2023/10/17 07:05:52;;;;;;;27.50;25.90;;;;;;;10.73;100.00;101811.34;5026910;28;20486;-77
2023/10/17 07:08:22;;;;;;;28.55;27.05;;;;;;;10.12;100.00;101819.28;5021516;28;20687;-76
2023/10/17 07:11:02;;;;;;;29.33;27.63;;;;;;;10.17;100.00;101811.63;5027237;28;20060;-77
2023/10/17 07:14:22;;;;;;;28.65;27.05;;;;;;;10.82;100.00;101812.09;5030120;28;20049;-76
2023/10/17 07:16:57;;;;;;;27.27;25.75;;;;;;;10.84;100.00;101800.28;5016843;28;21153;-77
2023/10/17 07:22:36;;;;;;;33.72;31.85;;;;;;;12.57;100.00;101784.50;5029886;28;20441;-78
2023/10/17 07:25:18;;;;;;;34.92;32.83;;;;;;;12.59;100.00;101790.47;5023391;28;20044;-76
2023/10/17 07:27:46;;;;;;;32.78;31.08;;;;;;;14.88;100.00;101779.31;5030557;28;20084;-76
2023/10/17 07:30:34;;;;;;;25.17;23.77;;;;;;;16.95;100.00;101774.44;5026543;28;20458;-76
2023/10/17 07:33:04;;;;;;;27.85;26.25;;;;;;;16.87;100.00;101777.41;5026285;28;20064;-75
2023/10/17 07:35:36;;;;;;;27.60;26.00;;;;;;;14.27;100.00;101780.34;5028086;28;20049;-76
2023/10/17 07:38:04;;;;;;;29.60;27.35;;;;;;;13.54;100.00;101779.38;5023204;28;20064;-76
2023/10/17 07:40:42;;;;;;;29.80;27.13;;;;;;;12.49;100.00;101776.66;5029873;28;20045;-76
2023/10/17 07:43:12;;;;;;;26.83;25.13;;;;;;;13.92;100.00;101777.03;5022084;28;20672;-76
2023/10/17 07:45:39;;;;;;;26.55;24.83;;;;;;;13.51;100.00;101772.56;5023325;28;20083;-77
2023/10/17 07:48:19;;;;;;;26.50;24.90;;;;;;;15.69;100.00;101767.34;5028473;28;20425;-75
2023/10/17 07:50:48;;;;;;;34.67;25.45;;;;;;;16.75;100.00;101760.34;5020008;28;20053;-76
2023/10/17 07:53:35;;;;;;;27.10;25.40;;;;;;;17.46;100.00;101762.47;5029328;28;20131;-76
2023/10/17 07:56:12;;;;;;;28.08;26.17;;;;;;;17.34;96.80;101759.72;5029042;28;20127;-75
2023/10/17 07:58:42;;;;;;;24.33;22.73;;;;;;;17.26;99.19;101757.34;5030242;28;20056;-76
2023/10/17 08:01:19;;;;;;;26.20;24.30;;;;;;;14.23;100.00;101770.28;5022779;28;21030;-75
2023/10/17 08:03:54;;;;;;;26.17;24.48;;;;;;;15.66;100.00;101754.34;5028738;28;20064;-76
2023/10/17 08:06:30;;;;;;;26.80;25.00;;;;;;;13.70;100.00;101755.78;5030042;28;20041;-75
2023/10/17 08:08:59;;;;;;;26.20;24.50;;;;;;;13.56;100.00;101754.13;5029042;28;20083;-76
2023/10/17 08:11:31;;;;;;;25.45;23.77;;;;;;;14.14;100.00;101751.78;5030524;28;20057;-76
2023/10/17 08:14:05;;;;;;;25.90;24.00;;;;;;;16.20;100.00;101743.09;5029911;28;20053;-77
2023/10/17 08:16:42;;;;;;;24.08;22.48;;;;;;;17.39;100.00;101733.00;5022871;28;20081;-75
2023/10/17 08:19:15;;;;;;;25.05;23.35;;;;;;;16.53;100.00;101725.91;5020572;28;20057;-76
2023/10/17 08:22:10;;;;;;;24.85;23.15;;;;;;;18.88;76.88;101723.22;5030051;28;20559;-75
2023/10/17 08:24:44;;;;;;;24.77;23.27;;;;;;;18.22;65.26;101726.03;5019924;28;20111;-75
2023/10/17 08:27:41;;;;;;;24.83;23.33;;;;;;;17.40;61.48;101728.47;5020293;28;20129;-76
2023/10/17 08:30:22;;;;;;;25.52;23.83;;;;;;;18.61;53.07;101715.66;5025388;28;20111;-77
2023/10/17 08:32:55;;;;;;;27.40;25.40;;;;;;;18.60;51.70;101716.69;5028520;28;20453;-75
2023/10/17 08:35:28;;;;;;;25.58;23.77;;;;;;;19.92;73.40;101719.59;5020801;28;20050;-75
2023/10/17 08:37:55;;;;;;;26.17;24.38;;;;;;;19.81;44.78;101721.28;5028464;28;20053;-75
2023/10/17 08:40:32;;;;;;;23.95;22.55;;;;;;;19.49;40.34;101720.97;5025413;28;20144;-75
2023/10/17 08:43:01;;;;;;;24.75;23.25;;;;;;;19.06;37.49;101715.00;5029194;28;20052;-74
2023/10/17 08:45:36;;;;;;;22.50;21.10;;;;;;;18.53;37.65;101727.56;5030322;28;20128;-76
2023/10/17 08:48:06;;;;;;;24.55;22.70;;;;;;;18.14;37.53;101723.69;5029120;28;20049;-75
2023/10/17 08:50:37;;;;;;;24.45;22.95;;;;;;;17.99;37.16;101721.44;5027077;28;20061;-76
2023/10/17 08:53:46;;;;;;;24.25;22.75;;;;;;;17.90;38.15;101713.94;5030128;28;20053;-76
2023/10/17 08:56:14;;;;;;;29.52;27.92;;;;;;;17.77;40.20;101715.78;5027740;28;20052;-75
2023/10/17 08:58:43;;;;;;;26.00;24.20;;;;;;;17.97;38.41;101709.28;5029445;28;20041;-75
2023/10/17 09:01:55;;;;;;;25.52;23.63;;;;;;;17.89;39.24;101710.44;5025165;28;20057;-77
2023/10/17 09:04:23;;;;;;;25.13;23.42;;;;;;;17.64;39.52;101718.66;5028765;28;20519;-76
2023/10/17 09:06:59;;;;;;;26.85;25.15;;;;;;;17.69;42.07;101712.56;5024444;28;20049;-76
2023/10/17 09:09:29;;;;;;;24.80;23.20;;;;;;;17.73;42.61;101705.69;5029949;28;20055;-76
2023/10/17 09:12:19;;;;;;;26.55;24.85;;;;;;;17.90;43.00;101701.31;5015516;28;20053;-76
2023/10/17 09:14:49;;;;;;;25.20;23.50;;;;;;;17.60;48.39;101710.19;5018493;28;20049;-76
2023/10/17 09:17:20;;;;;;;26.70;24.75;;;;;;;17.71;49.70;101707.78;5022464;28;20054;-76
2023/10/17 09:19:52;;;;;;;27.90;26.10;;;;;;;18.03;51.82;101703.81;5029027;28;20453;-75
2023/10/17 09:22:44;;;;;;;27.73;25.83;;;;;;;18.27;47.24;101714.56;5029084;28;20085;-75
2023/10/17 09:25:35;;;;;;;26.83;25.02;;;;;;;18.75;50.74;101697.41;5028379;28;20524;-77
2023/10/17 09:28:04;;;;;;;27.17;25.17;;;;;;;18.67;41.89;101698.56;5025817;28;20045;-76
2023/10/17 09:30:31;;;;;;;25.50;23.70;;;;;;;18.89;41.85;101687.19;5028410;28;20052;-77
2023/10/17 09:32:59;;;;;;;27.38;25.48;;;;;;;18.92;42.33;101690.22;5027555;28;20052;-76
2023/10/17 09:35:28;;;;;;;26.13;24.40;;;;;;;19.10;40.37;101681.16;5019012;28;20046;-76
2023/10/17 09:38:09;;;;;;;25.30;23.50;;;;;;;18.99;39.61;101668.56;5025003;28;20072;-76
2023/10/17 09:40:35;;;;;;;25.90;24.00;;;;;;;19.80;40.49;101663.88;5023428;28;20068;-76
2023/10/17 09:43:03;;;;;;;25.25;23.45;;;;;;;19.78;38.91;101662.47;5027549;28;20402;-75
2023/10/17 09:45:34;;;;;;;25.42;23.63;;;;;;;19.80;39.53;101665.75;5022543;28;20050;-75
2023/10/17 09:48:04;;;;;;;25.77;23.98;;;;;;;19.59;39.18;101651.06;5023201;28;20045;-75
2023/10/17 09:50:45;;;;;;;25.60;23.98;;;;;;;19.61;37.65;101652.47;5028899;28;20401;-75
2023/10/17 09:53:16;;;;;;;28.08;26.27;;;;;;;19.71;36.85;101651.03;5017771;28;20045;-75
2023/10/17 09:55:47;;;;;;;28.00;26.40;;;;;;;19.34;37.18;101646.88;5029155;28;20475;-75
2023/10/17 09:58:24;;;;;;;27.98;26.27;;;;;;;19.10;39.88;101648.03;5025825;28;20046;-75
2023/10/17 10:01:07;;;;;;;23.48;21.98;;;;;;;19.40;37.69;101640.53;5015447;28;20060;-76
2023/10/17 10:03:40;;;;;;;22.83;21.38;;;;;;;19.83;38.97;101646.38;5025453;28;20429;-74
2023/10/17 10:06:31;;;;;;;26.65;25.05;;;;;;;20.69;35.89;101635.22;5029191;28;20042;-75
2023/10/17 10:09:26;;;;;;;25.98;24.38;;;;;;;20.94;36.19;101632.03;5027080;28;20054;-76
2023/10/17 10:12:01;;;;;;;26.20;24.70;;;;;;;20.74;34.22;101632.59;5031007;28;20049;-76
2023/10/17 10:14:49;;;;;;;26.85;25.25;;;;;;;20.82;34.11;101626.75;5031609;28;20140;-76
2023/10/17 10:17:17;;;;;;;27.88;26.17;;;;;;;21.20;34.41;101628.50;5027092;28;20081;-76
2023/10/17 10:20:08;;;;;;;25.33;23.73;;;;;;;20.92;34.87;101620.66;5029738;28;20103;-77
2023/10/17 10:23:12;;;;;;;26.27;24.77;;;;;;;20.68;33.17;101618.22;5027952;28;20124;-76
2023/10/17 10:26:03;;;;;;;25.35;23.75;;;;;;;20.48;32.08;101607.13;5023020;28;20433;-76
2023/10/17 10:28:35;;;;;;;26.45;24.75;;;;;;;20.25;32.07;101600.91;5030478;28;20414;-76
2023/10/17 10:31:39;;;;;;;25.60;24.00;;;;;;;19.11;34.25;101606.59;5032495;28;20432;-75
2023/10/17 10:34:07;;;;;;;27.30;25.27;;;;;;;19.39;35.40;101600.34;5031851;28;20053;-76
2023/10/17 10:36:42;;;;;;;27.27;25.58;;;;;;;20.57;31.80;101595.69;5032007;28;20058;-75
2023/10/17 10:39:18;;;;;;;25.67;24.08;;;;;;;20.67;31.74;101581.50;5032004;28;20045;-75
2023/10/17 10:42:21;;;;;;;26.60;24.83;;;;;;;20.74;31.81;101578.59;5032249;28;20057;-75
2023/10/17 10:44:51;;;;;;;23.88;22.38;;;;;;;20.61;32.05;101579.00;5018010;28;20061;-76
2023/10/17 10:47:32;;;;;;;24.77;23.30;;;;;;;19.67;33.94;101578.78;5027374;28;20060;-76
2023/10/17 10:50:11;;;;;;;26.27;24.77;;;;;;;19.16;32.81;101579.75;5031933;28;20049;-76
2023/10/17 10:52:39;;;;;;;26.67;25.17;;;;;;;19.73;32.81;101578.81;5017926;28;20487;-76
2023/10/17 10:55:09;;;;;;;27.17;25.48;;;;;;;19.60;33.60;101575.38;5032165;28;20076;-76
2023/10/17 10:57:36;;;;;;;28.15;26.52;;;;;;;19.29;34.14;101574.06;5031768;28;20057;-76
2023/10/17 11:00:09;;;;;;;28.63;26.92;;;;;;;20.00;33.15;101571.72;5031085;28;20045;-77
2023/10/17 11:02:36;;;;;;;28.17;26.58;;;;;;;19.81;34.15;101570.34;5027364;28;20107;-75
2023/10/17 11:05:10;;;;;;;26.77;25.08;;;;;;;20.50;32.90;101570.72;5026813;28;20049;-75
2023/10/17 11:07:41;;;;;;;26.30;24.70;;;;;;;20.54;35.28;101560.28;5028458;28;20050;-76
2023/10/17 11:10:10;;;;;;;27.23;25.52;;;;;;;20.55;33.81;101560.03;5031471;28;20448;-76
2023/10/17 11:12:39;;;;;;;28.88;26.98;;;;;;;20.06;32.27;101548.31;5020725;28;20513;-76
2023/10/17 11:15:12;;;;;;;29.27;27.27;;;;;;;19.91;46.43;101543.53;5027830;28;20402;-75
2023/10/17 11:17:39;;;;;;;29.92;28.13;;;;;;;20.31;33.04;101528.97;5026949;28;20504;-76
2023/10/17 11:20:21;;;;;;;29.27;27.60;;;;;;;19.99;33.90;101535.00;5029174;28;20050;-75
2023/10/17 11:22:59;;;;;;;29.30;27.60;;;;;;;20.18;33.96;101543.63;5030841;28;20053;-77
2023/10/17 11:25:37;;;;;;;26.90;25.20;;;;;;;19.55;33.49;101536.78;5019377;28;20421;-76
2023/10/17 11:28:07;;;;;;;26.20;24.63;;;;;;;20.02;39.01;101522.91;5027110;28;20053;-74
2023/10/17 11:30:48;;;;;;;24.90;23.30;;;;;;;19.68;34.51;101520.28;5021427;28;20053;-76
2023/10/17 11:33:28;;;;;;;26.17;24.48;;;;;;;20.09;34.96;101512.75;5026977;28;20053;-77
2023/10/17 11:36:02;;;;;;;26.38;24.77;;;;;;;20.09;36.88;101510.91;5018751;28;20068;-77
2023/10/17 11:38:37;;;;;;;26.20;24.58;;;;;;;19.96;32.81;101500.47;5030440;28;20045;-76
2023/10/17 11:41:05;;;;;;;25.50;24.00;;;;;;;20.16;32.88;101496.41;5016019;28;20528;-76
2023/10/17 11:43:36;;;;;;;24.98;23.38;;;;;;;20.02;33.02;101506.75;5030275;28;20061;-77
2023/10/17 11:46:12;;;;;;;29.58;27.77;;;;;;;20.59;36.36;101499.09;5030655;28;20429;-77
2023/10/17 11:48:44;;;;;;;26.17;24.58;;;;;;;22.36;33.64;101482.75;5031165;28;20723;-76
2023/10/17 11:51:13;;;;;;;27.33;25.70;;;;;;;21.62;32.22;101481.06;5029189;28;20057;-76
2023/10/17 11:54:05;;;;;;;26.27;24.67;;;;;;;21.95;31.42;101479.88;5029723;28;20049;-76
2023/10/17 11:56:40;;;;;;;25.88;24.27;;;;;;;22.04;31.21;101478.31;5027891;28;20042;-76
2023/10/17 11:59:10;;;;;;;27.17;25.67;;;;;;;21.85;31.47;101469.03;5027346;28;20058;-77
2023/10/17 12:01:38;;;;;;;27.50;26.05;;;;;;;20.90;32.61;101482.38;5029981;28;20107;-76
2023/10/17 12:04:11;;;;;;;25.92;24.33;;;;;;;20.31;33.28;101475.00;5030226;28;20057;-76
2023/10/17 12:06:40;;;;;;;;;;;;;;;19.80;33.40;101474.38;5024205;28;20144;-76
2023/10/17 12:09:17;;;;;;;28.80;27.20;;;;;;;19.59;37.20;101459.78;5018084;28;20368;-75
2023/10/17 12:11:47;;;;;;;26.30;24.85;;;;;;;19.82;34.78;101464.97;5030382;28;20513;-75
2023/10/17 12:14:19;;;;;;;29.17;27.48;;;;;;;19.84;39.96;101464.72;5026929;28;20046;-76
2023/10/17 12:17:18;;;;;;;27.13;25.52;;;;;;;19.75;36.77;101455.44;5030549;28;20045;-78
2023/10/17 12:20:12;;;;;;;23.23;21.73;;;;;;;19.67;37.21;101457.50;5023980;28;20049;-77
2023/10/17 12:22:39;;;;;;;22.50;21.10;;;;;;;19.50;36.27;101458.56;5031151;28;20068;-78
2023/10/17 12:25:08;;;;;;;22.38;21.05;;;;;;;19.84;36.37;101453.94;5029282;28;20053;-78
2023/10/17 12:28:02;;;;;;;24.63;23.23;;;;;;;19.14;37.28;101447.25;5025059;28;20081;-76
2023/10/17 12:30:42;;;;;;;26.05;24.65;;;;;;;19.14;38.64;101441.88;5026759;28;20501;-77
2023/10/17 12:33:18;;;;;;;25.70;24.30;;;;;;;18.90;41.40;101447.41;5030765;28;20568;-77
2023/10/17 12:35:46;;;;;;;25.35;23.75;;;;;;;18.75;41.38;101445.25;5023167;28;20045;-76
2023/10/17 12:38:23;;;;;;;24.77;23.38;;;;;;;18.64;42.95;101439.91;5029566;28;20528;-75
2023/10/17 12:40:55;;;;;;;22.48;21.08;;;;;;;19.17;43.52;101434.09;5030843;28;20451;-77
2023/10/17 12:43:32;;;;;;;25.92;24.33;;;;;;;18.75;42.81;101428.31;5029531;28;20053;-76
2023/10/17 12:46:13;;;;;;;23.85;22.45;;;;;;;18.67;42.50;101448.34;5028458;28;20054;-77
2023/10/17 12:48:41;;;;;;;23.65;22.25;;;;;;;18.88;48.06;101436.09;5019618;28;20437;-75
2023/10/17 12:51:11;;;;;;;25.67;24.08;;;;;;;18.64;44.37;101431.84;5021751;28;20053;-76
2023/10/17 12:53:51;;;;;;;26.10;24.60;;;;;;;18.88;44.70;101427.16;5026246;28;20065;-78
2023/10/17 12:56:20;;;;;;;25.75;24.25;;;;;;;18.65;42.78;101426.22;5025588;28;20042;-76
2023/10/17 12:58:47;;;;;;;32.38;29.83;;;;;;;18.81;46.41;101432.72;5029875;28;20128;-77
2023/10/17 13:01:24;;;;;;;44.88;41.70;;;;;;;18.78;44.42;101427.81;5029459;28;20049;-76
2023/10/17 13:03:53;;;;;;;31.42;29.33;;;;;;;18.87;43.79;101425.53;5028705;28;20049;-75
2023/10/17 13:06:24;;;;;;;26.55;24.90;;;;;;;18.66;43.32;101418.97;5021051;28;20045;-77
2023/10/17 13:09:11;;;;;;;27.33;25.42;;;;;;;18.62;44.60;101420.53;5023198;28;20541;-75
2023/10/17 13:11:38;;;;;;;30.63;28.27;;;;;;;18.52;44.86;101416.59;5029213;28;20136;-75
2023/10/17 13:14:16;;;;;;;26.50;24.58;;;;;;;18.62;45.89;101413.25;5026315;28;20141;-75
2023/10/17 13:16:43;;;;;;;29.42;27.10;;;;;;;18.45;48.21;101410.53;5014819;28;20425;-76
2023/10/17 13:19:16;;;;;;;26.63;24.75;;;;;;;18.18;47.65;101414.84;5023334;28;20111;-76